aviador You're here:

GMAD Decoded Metar

AL MASSIRA MC in MOROCCO
Report Time2017-12-16 03:30:00
UTC Time2017-12-16 03:40:47
Flight Rules mvfr MVFR
Wind080° at 03 kt
W.Decomp.*RWY 10: 2.9 kt HW 0.9 kt LCW
W.Rank080° ranks 9
Current wind is below 080° avg. (5.3)
Visibility8000 m
Phenomena:N/A
Clouds:Scattered 010 Hf
Broken 016 Hf
Expected CloudBase > 1,200 ft AGL from Temp-Dew spread
Ceiling1,600 ft
Temp15°C (ISA 0)
Dew Point12°C (82% RH)
AAT14.5°C
QNH1019 hPa
Density Alt285 ft
Elevation243 ft
Report Wrong Elevation
Raw Report
GMAD 160330Z 08003KT 040V110 8000 SCT010 BKN016 15/12 Q1019
NOSIG=

Extra information for GMAD:More info

Metar Taf Metar & Taf Last 4 Metars F.Rules Stats Wind Profile Meteogram Temp Stats Airport Information Weather charts Add Link Nearby VenuesMetar ALERT Operation Metar Decoded Social comments